createdAt,value
2017-11-30T00:01:09.296Z,60.10
2017-11-30T00:03:38.349Z,60.10
2017-11-30T00:06:07.208Z,60.10
2017-11-30T00:08:35.923Z,60.80
2017-11-30T00:11:04.187Z,60.00
2017-11-30T00:13:32.456Z,60.00
2017-11-30T00:16:01.476Z,60.00
2017-11-30T00:18:29.813Z,60.00
2017-11-30T00:20:58.094Z,60.00
2017-11-30T00:23:26.381Z,60.10
2017-11-30T00:25:55.034Z,60.00
2017-11-30T00:28:23.331Z,60.10
2017-11-30T00:30:51.585Z,60.30
2017-11-30T00:33:19.912Z,60.30
2017-11-30T00:35:48.177Z,60.30
2017-11-30T00:38:16.486Z,60.40
2017-11-30T00:40:44.774Z,60.40
2017-11-30T00:43:28.879Z,60.50
2017-11-30T00:45:57.140Z,60.50
2017-11-30T00:48:26.563Z,60.50
2017-11-30T00:50:54.829Z,60.50
2017-11-30T00:53:23.106Z,60.50
2017-11-30T00:55:53.069Z,60.60
2017-11-30T00:58:21.773Z,60.60
2017-11-30T01:00:50.130Z,60.70
2017-11-30T01:03:18.422Z,60.70
2017-11-30T01:05:46.984Z,60.60
2017-11-30T01:08:15.257Z,60.70
2017-11-30T01:10:43.535Z,60.70
2017-11-30T01:13:12.774Z,60.60
2017-11-30T01:15:41.036Z,60.60
2017-11-30T01:18:09.361Z,60.70
2017-11-30T01:20:37.635Z,60.70
2017-11-30T01:23:06.226Z,60.70
2017-11-30T01:25:35.242Z,60.70
2017-11-30T01:28:03.518Z,60.70
2017-11-30T01:30:45.927Z,60.60
2017-11-30T01:33:14.186Z,60.60
2017-11-30T01:35:42.509Z,60.70
2017-11-30T01:38:10.779Z,60.80
2017-11-30T01:40:41.527Z,60.80
2017-11-30T01:43:09.793Z,60.80
2017-11-30T01:45:38.101Z,60.80
2017-11-30T01:48:06.389Z,60.90
2017-11-30T01:50:34.882Z,60.90
2017-11-30T01:53:03.178Z,60.90
2017-11-30T01:55:31.457Z,60.80
2017-11-30T01:58:00.034Z,60.80
2017-11-30T02:00:29.065Z,60.90
2017-11-30T02:03:02.095Z,60.80
2017-11-30T02:05:30.395Z,60.90
2017-11-30T02:07:58.672Z,60.90
2017-11-30T02:10:26.979Z,61.00
2017-11-30T02:12:55.253Z,61.00
2017-11-30T02:15:26.269Z,60.90
2017-11-30T02:17:54.543Z,60.90
2017-11-30T02:20:23.160Z,61.00
2017-11-30T02:22:52.255Z,61.80
2017-11-30T02:25:26.820Z,61.00
2017-11-30T02:27:55.095Z,61.10
2017-11-30T02:30:23.335Z,61.10
2017-11-30T02:32:51.619Z,61.20
2017-11-30T02:35:19.919Z,61.20
2017-11-30T02:37:48.226Z,61.30
2017-11-30T02:40:18.482Z,61.50
2017-11-30T02:42:47.208Z,61.50
2017-11-30T02:45:15.486Z,61.50
2017-11-30T02:47:44.709Z,61.50
2017-11-30T02:50:13.961Z,61.50
2017-11-30T02:52:42.211Z,61.50
2017-11-30T02:55:10.492Z,61.60
2017-11-30T02:57:38.802Z,61.50
2017-11-30T03:00:07.393Z,61.50
2017-11-30T03:02:37.600Z,61.50
2017-11-30T03:05:05.867Z,61.40
2017-11-30T03:07:34.146Z,61.40
2017-11-30T03:10:02.408Z,61.50
2017-11-30T03:12:30.707Z,61.50
2017-11-30T03:14:58.962Z,61.60
2017-11-30T03:17:27.505Z,61.50
2017-11-30T03:19:55.753Z,61.50
2017-11-30T03:22:32.503Z,61.60
2017-11-30T03:25:00.762Z,61.60
2017-11-30T03:27:29.767Z,61.90
2017-11-30T03:29:58.043Z,61.90
2017-11-30T03:32:26.298Z,62.00
2017-11-30T03:34:56.201Z,62.10
2017-11-30T03:37:24.519Z,62.00
2017-11-30T03:39:53.955Z,62.10
2017-11-30T03:42:22.251Z,62.10
2017-11-30T03:44:50.499Z,62.10
2017-11-30T03:47:19.590Z,62.10
2017-11-30T03:49:47.852Z,62.10
2017-11-30T03:52:16.145Z,62.10
2017-11-30T03:54:44.393Z,61.90
2017-11-30T03:57:13.447Z,62.10
2017-11-30T03:59:41.714Z,62.10
2017-11-30T04:02:09.970Z,62.10
2017-11-30T04:04:39.046Z,62.10
2017-11-30T04:07:08.070Z,62.10
2017-11-30T04:09:36.398Z,62.00
2017-11-30T04:12:04.661Z,62.10
2017-11-30T04:14:33.259Z,62.10
2017-11-30T04:17:01.538Z,62.10
2017-11-30T04:19:29.779Z,62.10
2017-11-30T04:21:58.062Z,62.10
2017-11-30T04:24:26.326Z,62.20
2017-11-30T04:26:54.632Z,62.20
2017-11-30T04:29:22.899Z,62.20
2017-11-30T04:31:51.904Z,62.20
2017-11-30T04:34:20.168Z,62.20
2017-11-30T04:36:48.448Z,62.20
2017-11-30T04:39:16.739Z,62.20
2017-11-30T04:41:45.039Z,62.30
2017-11-30T04:44:14.350Z,62.40
2017-11-30T04:46:42.625Z,62.20
2017-11-30T04:49:10.927Z,62.40
2017-11-30T04:51:40.956Z,62.30
2017-11-30T04:54:09.242Z,62.30
2017-11-30T04:56:37.518Z,62.90
2017-11-30T04:59:05.832Z,62.30
2017-11-30T05:01:34.355Z,62.30
2017-11-30T05:04:02.611Z,62.30
2017-11-30T05:06:30.898Z,62.40
2017-11-30T05:08:59.174Z,62.40
2017-11-30T05:11:27.432Z,62.40
2017-11-30T05:13:55.723Z,62.50
2017-11-30T05:16:24.012Z,62.50
2017-11-30T05:18:53.354Z,62.50
2017-11-30T05:21:21.614Z,62.50
2017-11-30T05:23:51.545Z,63.30
2017-11-30T05:26:19.822Z,62.50
2017-11-30T05:28:48.095Z,62.50
2017-11-30T05:31:16.376Z,62.60
2017-11-30T05:33:44.637Z,62.60
2017-11-30T05:36:13.249Z,62.70
2017-11-30T05:38:41.527Z,62.70
2017-11-30T05:41:09.789Z,62.70
2017-11-30T05:43:39.065Z,62.70
2017-11-30T05:46:07.335Z,62.70
2017-11-30T05:48:43.391Z,62.70
2017-11-30T05:51:11.658Z,62.60
2017-11-30T05:53:41.983Z,62.70
2017-11-30T05:56:11.244Z,62.70
2017-11-30T05:58:47.877Z,62.70
2017-11-30T06:01:16.153Z,62.80
2017-11-30T06:03:44.427Z,62.70
2017-11-30T06:06:29.070Z,62.70
2017-11-30T06:08:59.365Z,62.60
2017-11-30T06:11:27.660Z,62.50
2017-11-30T06:14:00.376Z,62.60
2017-11-30T06:16:29.014Z,62.60
2017-11-30T06:18:57.304Z,62.50
2017-11-30T06:21:25.560Z,62.50
2017-11-30T06:23:53.857Z,62.50
2017-11-30T06:26:22.139Z,62.60
2017-11-30T06:28:50.420Z,62.60
2017-11-30T06:31:19.661Z,62.60
2017-11-30T06:33:48.199Z,62.70
2017-11-30T06:36:16.458Z,62.60
2017-11-30T06:38:44.747Z,62.60
2017-11-30T06:41:13.026Z,62.50
2017-11-30T06:43:41.303Z,62.50
2017-11-30T06:46:09.601Z,62.50
2017-11-30T06:48:38.655Z,62.60
2017-11-30T06:51:08.170Z,62.50
2017-11-30T06:53:36.441Z,62.70
2017-11-30T06:56:04.704Z,62.80
2017-11-30T06:58:32.991Z,62.80
2017-11-30T07:01:01.267Z,62.80
2017-11-30T07:03:29.562Z,62.80
2017-11-30T07:05:57.843Z,62.80
2017-11-30T07:08:26.135Z,62.80
2017-11-30T07:10:54.384Z,62.80
2017-11-30T07:13:22.924Z,62.80
2017-11-30T07:15:51.179Z,62.90
2017-11-30T07:18:20.094Z,62.80
2017-11-30T07:20:49.143Z,63.10
2017-11-30T07:23:17.411Z,63.10
2017-11-30T07:25:45.724Z,63.00
2017-11-30T07:28:13.987Z,63.20
2017-11-30T07:30:42.567Z,63.20
2017-11-30T07:33:10.844Z,63.10
2017-11-30T07:35:39.089Z,63.00
2017-11-30T07:38:07.373Z,63.00
2017-11-30T07:40:35.653Z,63.10
2017-11-30T07:43:03.931Z,63.10
2017-11-30T07:45:32.200Z,63.20
2017-11-30T07:48:00.904Z,63.10
2017-11-30T07:50:29.163Z,63.10
2017-11-30T07:52:57.421Z,63.10
2017-11-30T07:55:25.711Z,63.20
2017-11-30T07:57:53.984Z,63.30
2017-11-30T08:00:22.266Z,63.20
2017-11-30T08:02:50.524Z,63.10
2017-11-30T08:05:19.090Z,63.20
2017-11-30T08:07:47.375Z,63.30
2017-11-30T08:10:16.580Z,63.30
2017-11-30T08:12:44.870Z,63.10
2017-11-30T08:15:13.159Z,63.00
2017-11-30T08:17:41.458Z,62.90
2017-11-30T08:20:09.729Z,62.70
2017-11-30T08:22:38.333Z,62.70
2017-11-30T08:25:06.595Z,62.60
2017-11-30T08:27:34.861Z,62.60
2017-11-30T08:30:03.162Z,62.60
2017-11-30T08:32:31.414Z,62.50
2017-11-30T08:34:59.693Z,62.50
2017-11-30T08:37:27.942Z,62.50
2017-11-30T08:39:56.469Z,62.50
2017-11-30T08:42:24.720Z,62.60
2017-11-30T08:44:52.988Z,62.50
2017-11-30T08:47:21.277Z,62.60
2017-11-30T08:49:49.559Z,62.40
2017-11-30T08:52:17.879Z,62.50
2017-11-30T08:54:46.132Z,62.50
2017-11-30T08:57:14.599Z,62.50
2017-11-30T08:59:42.878Z,62.50
2017-11-30T09:02:11.486Z,62.40
2017-11-30T09:04:39.777Z,62.30
2017-11-30T09:07:08.025Z,62.20
2017-11-30T09:09:36.345Z,62.10
2017-11-30T09:12:05.400Z,62.10
2017-11-30T09:14:33.698Z,62.10
2017-11-30T09:17:01.958Z,62.00
2017-11-30T09:19:30.574Z,61.90
2017-11-30T09:21:58.804Z,62.50
2017-11-30T09:24:27.066Z,61.70
2017-11-30T09:26:55.357Z,61.70
2017-11-30T09:29:23.615Z,61.70
2017-11-30T09:31:51.962Z,61.70
2017-11-30T09:34:20.215Z,61.60
2017-11-30T09:36:48.779Z,61.70
2017-11-30T09:39:17.973Z,61.40
2017-11-30T09:41:46.225Z,61.50
2017-11-30T09:44:14.528Z,61.30
2017-11-30T09:46:42.778Z,61.40
2017-11-30T09:49:11.839Z,61.40
2017-11-30T09:51:40.083Z,61.40
2017-11-30T09:54:09.547Z,61.30
2017-11-30T09:56:38.560Z,61.00
2017-11-30T09:59:06.858Z,61.00
2017-11-30T10:01:35.140Z,61.00
2017-11-30T10:04:03.421Z,61.00
2017-11-30T10:06:31.745Z,60.90
2017-11-30T10:09:00.768Z,60.70
2017-11-30T10:11:29.383Z,60.70
2017-11-30T10:13:57.649Z,60.40
2017-11-30T10:16:25.911Z,60.30
2017-11-30T10:18:54.182Z,60.20
2017-11-30T10:21:22.441Z,60.30
2017-11-30T10:23:51.485Z,60.40
2017-11-30T10:26:19.758Z,60.40
2017-11-30T10:28:48.383Z,60.60
2017-11-30T10:31:16.610Z,60.50
2017-11-30T10:33:44.947Z,61.30
2017-11-30T10:36:16.851Z,60.20
2017-11-30T10:38:45.118Z,60.00
2017-11-30T10:41:13.642Z,59.80
2017-11-30T10:43:41.889Z,59.60
2017-11-30T10:46:10.192Z,59.50
2017-11-30T10:48:38.450Z,59.30
2017-11-30T10:51:07.164Z,59.10
2017-11-30T10:53:35.430Z,58.70
2017-11-30T10:56:03.697Z,58.60
2017-11-30T10:58:31.978Z,58.70
2017-11-30T11:01:00.246Z,58.40
2017-11-30T11:03:28.557Z,58.20
2017-11-30T11:05:56.848Z,58.20
2017-11-30T11:08:25.117Z,58.30
2017-11-30T11:10:53.394Z,58.20
2017-11-30T11:13:21.672Z,58.30
2017-11-30T11:15:49.967Z,58.30
2017-11-30T11:18:18.231Z,58.30
2017-11-30T11:20:46.492Z,58.80
2017-11-30T11:23:15.533Z,57.90
2017-11-30T11:25:44.568Z,57.80
2017-11-30T11:28:12.876Z,57.70
2017-11-30T11:30:41.140Z,57.70
2017-11-30T11:33:09.451Z,57.60
2017-11-30T11:35:37.718Z,57.80
2017-11-30T11:38:05.971Z,58.00
2017-11-30T11:40:34.296Z,58.20
2017-11-30T11:43:03.324Z,57.70
2017-11-30T11:45:31.615Z,57.80
2017-11-30T11:47:59.926Z,57.30
2017-11-30T11:50:28.190Z,57.00
2017-11-30T11:52:56.961Z,56.60
2017-11-30T11:55:25.217Z,56.20
2017-11-30T12:00:25.929Z,55.80
2017-11-30T12:02:54.203Z,55.90
2017-11-30T12:05:22.483Z,55.70
2017-11-30T12:07:50.784Z,56.00
2017-11-30T12:10:19.062Z,56.00
2017-11-30T12:12:47.325Z,55.90
2017-11-30T12:15:15.634Z,55.90
2017-11-30T12:17:43.895Z,55.90
2017-11-30T12:20:12.213Z,56.10
2017-11-30T12:22:40.490Z,56.30
2017-11-30T12:25:08.766Z,56.50
2017-11-30T12:27:37.049Z,55.40
2017-11-30T12:30:05.410Z,55.00
2017-11-30T12:32:33.739Z,54.60
2017-11-30T12:35:01.998Z,54.50
2017-11-30T12:37:30.270Z,54.10
2017-11-30T12:39:58.583Z,54.20
2017-11-30T12:42:27.624Z,53.90
2017-11-30T12:44:55.899Z,53.90
2017-11-30T12:47:24.262Z,54.00
2017-11-30T12:49:52.538Z,54.10
2017-11-30T12:52:20.852Z,54.30
2017-11-30T12:54:49.134Z,54.30
2017-11-30T12:57:17.421Z,54.50
2017-11-30T12:59:45.716Z,54.50
2017-11-30T13:02:14.015Z,54.20
2017-11-30T13:04:42.320Z,54.00
2017-11-30T13:07:10.589Z,54.00
2017-11-30T13:09:38.865Z,53.80
2017-11-30T13:12:07.150Z,53.80
2017-11-30T13:14:35.436Z,53.50
2017-11-30T13:17:03.715Z,53.30
2017-11-30T13:19:32.001Z,53.30
2017-11-30T13:22:00.300Z,53.40
2017-11-30T13:24:28.570Z,53.40
2017-11-30T13:26:56.838Z,53.40
2017-11-30T13:29:25.179Z,53.50
2017-11-30T13:31:53.462Z,53.40
2017-11-30T13:34:21.718Z,53.40
2017-11-30T13:36:50.009Z,52.90
2017-11-30T13:39:18.814Z,53.00
2017-11-30T13:41:47.158Z,53.00
2017-11-30T13:44:15.438Z,53.20
2017-11-30T13:46:43.722Z,52.90
2017-11-30T13:49:12.028Z,52.90
2017-11-30T13:51:40.305Z,53.10
2017-11-30T13:54:08.588Z,53.00
2017-11-30T13:56:36.891Z,53.00
2017-11-30T13:59:05.167Z,53.10
2017-11-30T14:01:33.450Z,53.10
2017-11-30T14:04:01.717Z,53.10
2017-11-30T14:06:30.844Z,53.20
2017-11-30T14:08:59.908Z,53.00
2017-11-30T14:11:28.224Z,53.00
2017-11-30T14:13:57.245Z,52.80
2017-11-30T14:16:25.595Z,52.80
2017-11-30T14:18:54.584Z,52.90
2017-11-30T14:21:22.906Z,52.90
2017-11-30T14:23:51.186Z,52.80
2017-11-30T14:26:19.484Z,52.80
2017-11-30T14:28:47.793Z,52.80
2017-11-30T14:31:16.060Z,52.50
2017-11-30T14:33:45.462Z,52.60
2017-11-30T14:36:14.523Z,52.70
2017-11-30T14:38:42.793Z,52.50
2017-11-30T14:41:11.093Z,52.70
2017-11-30T14:43:39.364Z,52.50
2017-11-30T14:46:07.682Z,52.60
2017-11-30T14:48:35.958Z,52.60
2017-11-30T14:51:04.287Z,52.50
2017-11-30T14:53:32.577Z,52.40
2017-11-30T14:56:00.852Z,52.40
2017-11-30T14:58:29.158Z,52.60
2017-11-30T15:00:57.425Z,52.60
2017-11-30T15:03:25.721Z,52.50
2017-11-30T15:05:54.024Z,52.50
2017-11-30T15:08:22.312Z,52.60
2017-11-30T15:10:50.602Z,52.70
2017-11-30T15:13:19.790Z,52.80
2017-11-30T15:15:48.829Z,52.80
2017-11-30T15:18:17.101Z,52.60
2017-11-30T15:20:45.377Z,52.90
2017-11-30T15:23:15.912Z,52.90
2017-11-30T15:25:44.188Z,53.50
2017-11-30T15:28:12.477Z,52.90
2017-11-30T15:30:40.747Z,52.90
2017-11-30T15:33:09.024Z,52.90
2017-11-30T15:35:37.295Z,53.10
2017-11-30T15:38:05.581Z,53.20
2017-11-30T15:40:33.844Z,53.30
2017-11-30T15:43:02.141Z,53.40
2017-11-30T15:45:30.397Z,54.00
2017-11-30T15:47:58.695Z,53.50
2017-11-30T15:50:26.953Z,53.60
2017-11-30T15:52:55.239Z,53.60
2017-11-30T15:55:23.504Z,53.50
2017-11-30T15:57:51.793Z,53.50
2017-11-30T16:00:20.057Z,53.60
2017-11-30T16:02:48.377Z,53.60
2017-11-30T16:05:16.622Z,53.70
2017-11-30T16:07:44.901Z,53.70
2017-11-30T16:10:13.200Z,53.80
2017-11-30T16:12:43.742Z,53.80
2017-11-30T16:15:11.989Z,54.20
2017-11-30T16:17:40.305Z,53.90
2017-11-30T16:20:08.568Z,53.90
2017-11-30T16:22:36.898Z,53.90
2017-11-30T16:25:05.286Z,53.80
2017-11-30T16:27:33.600Z,53.80
2017-11-30T16:30:03.034Z,53.90
2017-11-30T16:32:31.405Z,54.00
2017-11-30T16:34:59.649Z,53.90
2017-11-30T16:37:27.951Z,54.20
2017-11-30T16:39:56.308Z,54.10
2017-11-30T16:42:24.639Z,54.10
2017-11-30T16:44:52.865Z,54.20
2017-11-30T16:47:21.197Z,54.40
2017-11-30T16:49:49.548Z,54.40
2017-11-30T16:52:18.657Z,54.50
2017-11-30T16:54:48.547Z,54.70
2017-11-30T16:57:16.830Z,54.60
2017-11-30T16:59:45.129Z,54.80
2017-11-30T17:02:14.181Z,55.00
2017-11-30T17:04:42.490Z,54.90
2017-11-30T17:07:11.510Z,55.10
2017-11-30T17:09:39.873Z,55.10
2017-11-30T17:12:08.915Z,55.10
2017-11-30T17:14:37.225Z,55.10
2017-11-30T17:17:05.604Z,55.20
2017-11-30T17:21:51.798Z,55.10
2017-11-30T17:24:20.738Z,55.30
2017-11-30T17:26:49.760Z,55.30
2017-11-30T17:29:18.041Z,55.30
2017-11-30T17:31:46.294Z,55.30
2017-11-30T17:34:14.610Z,55.40
2017-11-30T17:36:42.900Z,55.40
2017-11-30T17:39:11.225Z,55.50
2017-11-30T17:41:39.502Z,55.60
2017-11-30T17:44:08.554Z,55.50
2017-11-30T17:46:36.863Z,55.50
2017-11-30T17:49:05.949Z,55.60
2017-11-30T17:51:34.247Z,55.60
2017-11-30T17:54:03.313Z,55.60
2017-11-30T17:56:31.607Z,55.50
2017-11-30T17:58:59.917Z,55.60
2017-11-30T18:01:28.195Z,55.70
2017-11-30T18:03:56.510Z,55.60
2017-11-30T18:06:24.850Z,55.70
2017-11-30T18:08:53.143Z,55.70
2017-11-30T18:11:21.389Z,55.70
2017-11-30T18:13:50.454Z,55.90
2017-11-30T18:16:18.837Z,55.70
2017-11-30T18:18:47.150Z,55.80
2017-11-30T18:21:15.548Z,55.80
2017-11-30T18:23:45.835Z,55.80
2017-11-30T18:26:14.135Z,55.90
2017-11-30T18:28:42.490Z,55.90
2017-11-30T18:31:10.893Z,56.00
2017-11-30T18:33:39.146Z,56.00
2017-11-30T18:36:08.266Z,56.10
2017-11-30T18:38:37.302Z,56.10
2017-11-30T18:41:06.393Z,56.20
2017-11-30T18:43:34.691Z,56.20
2017-11-30T18:46:03.017Z,56.20
2017-11-30T18:48:31.316Z,56.20
2017-11-30T18:50:59.799Z,56.20
2017-11-30T18:53:28.795Z,56.20
2017-11-30T18:55:58.845Z,56.30
2017-11-30T18:58:28.371Z,56.30
2017-11-30T19:00:57.590Z,56.30
2017-11-30T19:03:25.867Z,56.40
2017-11-30T19:05:57.419Z,56.30
2017-11-30T19:08:27.348Z,55.90
2017-11-30T19:10:55.754Z,56.50
2017-11-30T19:13:24.734Z,56.30
2017-11-30T19:15:53.060Z,56.20
2017-11-30T19:18:21.771Z,56.30
2017-11-30T19:20:50.911Z,56.40
2017-11-30T19:23:20.297Z,56.40
2017-11-30T19:25:48.670Z,56.60
2017-11-30T19:28:17.148Z,56.40
2017-11-30T19:30:48.429Z,56.50
2017-11-30T19:33:17.712Z,56.50
2017-11-30T19:35:46.044Z,56.50
2017-11-30T19:38:14.378Z,56.50
2017-11-30T19:40:42.682Z,56.60
2017-11-30T19:43:11.008Z,56.50
2017-11-30T19:45:40.071Z,56.50
2017-11-30T19:48:08.412Z,56.50
2017-11-30T19:50:36.752Z,56.50
2017-11-30T19:53:05.143Z,56.60
2017-11-30T19:55:33.466Z,56.50
2017-11-30T19:58:01.887Z,56.50
2017-11-30T20:00:30.290Z,56.50
2017-11-30T20:02:58.578Z,56.40
2017-11-30T20:05:27.809Z,56.40
2017-11-30T20:07:56.164Z,56.30
2017-11-30T20:10:25.537Z,56.30
2017-11-30T20:12:55.389Z,56.20
2017-11-30T20:15:23.896Z,56.30
2017-11-30T20:17:53.118Z,56.30
2017-11-30T20:20:21.509Z,56.30
2017-11-30T20:22:50.021Z,56.20
2017-11-30T20:25:18.450Z,56.20
2017-11-30T20:27:47.564Z,56.30
2017-11-30T20:30:15.986Z,56.30
2017-11-30T20:32:44.318Z,56.30
2017-11-30T20:35:12.794Z,56.40
2017-11-30T20:37:42.019Z,56.40
2017-11-30T20:40:11.137Z,56.50
2017-11-30T20:42:39.514Z,56.50
2017-11-30T20:45:11.294Z,56.50
2017-11-30T20:47:40.527Z,56.60
2017-11-30T20:50:15.933Z,56.60
2017-11-30T20:52:46.063Z,56.50
2017-11-30T20:55:17.076Z,56.50
2017-11-30T20:57:45.653Z,56.50
2017-11-30T21:00:14.037Z,56.50
2017-11-30T21:02:42.584Z,56.40
2017-11-30T21:05:11.740Z,56.40
2017-11-30T21:07:40.038Z,56.40
2017-11-30T21:10:08.365Z,56.40
2017-11-30T21:12:36.676Z,56.40
2017-11-30T21:15:05.156Z,56.40
2017-11-30T21:17:33.841Z,56.40
2017-11-30T21:20:02.318Z,56.50
2017-11-30T21:22:30.668Z,56.50
2017-11-30T21:25:00.012Z,56.60
2017-11-30T21:27:28.430Z,56.60
2017-11-30T21:29:57.497Z,56.70
2017-11-30T21:32:25.841Z,56.70
2017-11-30T21:34:54.099Z,56.80
2017-11-30T21:37:23.187Z,56.70
2017-11-30T21:39:52.240Z,56.80
2017-11-30T21:42:20.555Z,56.80
2017-11-30T21:44:48.961Z,56.80
2017-11-30T21:47:17.305Z,57.20
2017-11-30T21:49:45.600Z,57.00
2017-11-30T21:52:13.875Z,57.00
2017-11-30T21:54:47.910Z,57.20
2017-11-30T21:57:16.972Z,57.40
2017-11-30T21:59:45.248Z,57.40
2017-11-30T22:02:13.552Z,57.70
2017-11-30T22:04:42.613Z,57.80
2017-11-30T22:07:10.939Z,58.40
2017-11-30T22:09:39.999Z,57.90
2017-11-30T22:12:13.868Z,58.00
2017-11-30T22:14:42.136Z,57.90
2017-11-30T22:17:10.427Z,58.00
2017-11-30T22:19:38.778Z,58.00
2017-11-30T22:22:07.079Z,58.00
2017-11-30T22:24:35.397Z,57.90
2017-11-30T22:27:03.957Z,57.90
2017-11-30T22:29:32.208Z,58.00
2017-11-30T22:32:01.422Z,58.00
2017-11-30T22:34:29.720Z,58.00
2017-11-30T22:36:58.110Z,58.00
2017-11-30T22:39:26.361Z,58.10
2017-11-30T22:41:54.672Z,58.10
2017-11-30T22:44:22.958Z,58.10
2017-11-30T22:46:52.044Z,58.50
2017-11-30T22:49:21.223Z,58.00
2017-11-30T22:51:49.526Z,58.00
2017-11-30T22:54:17.816Z,58.00
2017-11-30T22:56:46.098Z,58.10
2017-11-30T22:59:15.157Z,58.20
2017-11-30T23:01:43.427Z,58.20
2017-11-30T23:04:11.757Z,58.30
2017-11-30T23:06:40.800Z,58.40
2017-11-30T23:09:09.102Z,58.30
2017-11-30T23:11:37.534Z,58.40
2017-11-30T23:14:06.802Z,58.50
2017-11-30T23:16:35.115Z,58.40
2017-11-30T23:19:03.497Z,58.50
2017-11-30T23:21:32.654Z,58.60
2017-11-30T23:24:01.738Z,58.70
2017-11-30T23:26:30.063Z,58.70
2017-11-30T23:28:58.450Z,58.70
2017-11-30T23:31:26.697Z,58.70
2017-11-30T23:33:54.985Z,58.80
2017-11-30T23:36:23.298Z,59.00
2017-11-30T23:38:51.657Z,58.90
2017-11-30T23:41:19.989Z,59.00
2017-11-30T23:43:48.501Z,59.00
2017-11-30T23:46:16.816Z,59.00
2017-11-30T23:48:45.190Z,59.10
2017-11-30T23:51:16.791Z,59.80
2017-11-30T23:53:45.110Z,59.20
2017-11-30T23:56:14.156Z,59.00
2017-11-30T23:58:42.432Z,59.00
